PWSweather.com
Personal Weather Stations
Station Observations
KAZTUCSO57
Countryside Manor, Tucson, AZ 85742

Countryside ManorTucson, AZ 85742

Lat: 32.3692, Lon: -111.066

Elevation: 2307

Station Type: Davis VP Pro+ 6163

http://frogville.us

Latest ConditionsUpdated 12:30:01 PM MST Thursday, Jul 31, 2014
Currently Today's Max Today's Min Today's Average
Temperature 98.1°F36.7°C 98.1°F36.7°C 84.2°F29.0°C 87.4°F30.8°C
Dew Point 58.4°F14.7°C 60.4°F15.8°C 56.1°F13.4°C 58.3°F14.6°C
Winds 2.6 mph SW4.2 kmh SW 3.6 mph ESE5.8 kmh ESE - 1.1 mph 1.8 kmh
Wind Gusts 5.0 mph8.0 kmh 7.0 mph11.3 kmh - -
Humidity 27% 43% 27% 38%
Pressure 29.98 in1015.2 mb 30.03 in1016.9 mb 29.93 in1013.5 mb -
Hour Temp Dew Point Humidity Winds Wind Gusts Pressure Precip Precip Rate Daily Precip Total
12:30 PM 98.1°F36.7°C 58.4°F14.7°C 27% 2.6 mph SW4.2 kmh SW 5.0 mph8.0 kmh 29.98 in1015.2 mb 0.00 in0.0 mm 0.00 in/hr0.0 mm/hr 0.00 in0.0 mm
12:20 PM 96.8°F36.0°C 58.3°F14.6°C 28% 1.2 mph NW1.9 kmh NW 3.0 mph4.8 kmh 29.99 in1015.6 mb 0.00 in0.0 mm 0.00 in/hr0.0 mm/hr 0.00 in0.0 mm
12:10 PM 96.2°F35.7°C 57.8°F14.3°C 28% 1.3 mph WSW2.1 kmh WSW 2.0 mph3.2 kmh 29.99 in1015.6 mb 0.00 in0.0 mm 0.00 in/hr0.0 mm/hr 0.00 in0.0 mm
12:00 PM 95.6°F35.3°C 58.2°F14.6°C 29% 1.6 mph WSW2.6 kmh WSW 2.0 mph3.2 kmh 30.00 in1015.9 mb 0.00 in0.0 mm 0.00 in/hr0.0 mm/hr 0.00 in0.0 mm
11:50 AM 95.0°F35.0°C 57.7°F14.3°C 29% 1.4 mph WSW2.3 kmh WSW 2.0 mph3.2 kmh 30.00 in1015.9 mb 0.00 in0.0 mm 0.00 in/hr0.0 mm/hr 0.00 in0.0 mm
11:40 AM 94.5°F34.7°C 57.3°F14.1°C 29% 2.3 mph S3.7 kmh S 3.0 mph4.8 kmh 30.00 in1015.9 mb 0.00 in0.0 mm 0.00 in/hr0.0 mm/hr 0.00 in0.0 mm
11:30 AM 94.0°F34.4°C 57.8°F14.3°C 30% 0.6 mph SSW1.0 kmh SSW 2.0 mph3.2 kmh 30.00 in1015.9 mb 0.00 in0.0 mm 0.00 in/hr0.0 mm/hr 0.00 in0.0 mm
11:20 AM 93.7°F34.3°C 56.6°F13.7°C 29% 0.3 mph SSE0.5 kmh SSE 1.0 mph1.6 kmh 30.00 in1015.9 mb 0.00 in0.0 mm 0.00 in/hr0.0 mm/hr 0.00 in0.0 mm
11:10 AM 94.0°F34.4°C 56.9°F13.8°C 29% 1.1 mph SW1.8 kmh SW 4.0 mph6.4 kmh 30.00 in1015.9 mb 0.00 in0.0 mm 0.00 in/hr0.0 mm/hr 0.00 in0.0 mm
11:00 AM 94.2°F34.6°C 56.1°F13.4°C 28% 1.9 mph SW3.1 kmh SW 2.0 mph3.2 kmh 30.01 in1016.3 mb 0.00 in0.0 mm 0.00 in/hr0.0 mm/hr 0.00 in0.0 mm
10:50 AM 94.0°F34.4°C 57.8°F14.3°C 30% 1.3 mph SE2.1 kmh SE 4.0 mph6.4 kmh 30.01 in1016.3 mb 0.00 in0.0 mm 0.00 in/hr0.0 mm/hr 0.00 in0.0 mm
10:40 AM 94.2°F34.6°C 58.0°F14.4°C 30% 2.3 mph S3.7 kmh S 4.0 mph6.4 kmh 30.01 in1016.3 mb 0.00 in0.0 mm 0.00 in/hr0.0 mm/hr 0.00 in0.0 mm
10:30 AM 94.0°F34.4°C 57.8°F14.3°C 30% 0.3 mph NNE0.5 kmh NNE 2.0 mph3.2 kmh 30.01 in1016.3 mb 0.00 in0.0 mm 0.00 in/hr0.0 mm/hr 0.00 in0.0 mm
10:20 AM 93.7°F34.3°C 57.6°F14.2°C 30% 0.3 mph SSW0.5 kmh SSW 1.0 mph1.6 kmh 30.02 in1016.6 mb 0.00 in0.0 mm 0.00 in/hr0.0 mm/hr 0.00 in0.0 mm
10:10 AM 93.7°F34.3°C 58.5°F14.7°C 31% 0.7 mph SE1.1 kmh SE 3.0 mph4.8 kmh 30.02 in1016.6 mb 0.00 in0.0 mm 0.00 in/hr0.0 mm/hr 0.00 in0.0 mm
10:00 AM 93.0°F33.9°C 57.9°F14.4°C 31% 1.1 mph SE1.8 kmh SE 2.0 mph3.2 kmh 30.02 in1016.6 mb 0.00 in0.0 mm 0.00 in/hr0.0 mm/hr 0.00 in0.0 mm
09:50 AM 92.3°F33.5°C 59.0°F15.0°C 33% 1.0 mph NNE1.6 kmh NNE 2.0 mph3.2 kmh 30.02 in1016.6 mb 0.00 in0.0 mm 0.00 in/hr0.0 mm/hr 0.00 in0.0 mm
09:40 AM 91.4°F33.0°C 59.1°F15.1°C 34% 1.9 mph SE3.1 kmh SE 4.0 mph6.4 kmh 30.02 in1016.6 mb 0.00 in0.0 mm 0.00 in/hr0.0 mm/hr 0.00 in0.0 mm
09:30 AM 89.8°F32.1°C 59.3°F15.2°C 36% 1.9 mph E3.1 kmh E 4.0 mph6.4 kmh 30.03 in1016.9 mb 0.00 in0.0 mm 0.00 in/hr0.0 mm/hr 0.00 in0.0 mm
09:20 AM 88.6°F31.4°C 59.7°F15.4°C 38% 2.4 mph ESE3.9 kmh ESE 6.0 mph9.7 kmh 30.03 in1016.9 mb 0.00 in0.0 mm 0.00 in/hr0.0 mm/hr 0.00 in0.0 mm
09:10 AM 88.0°F31.1°C 59.2°F15.1°C 38% 2.3 mph SE3.7 kmh SE 7.0 mph11.3 kmh 30.03 in1016.9 mb 0.00 in0.0 mm 0.00 in/hr0.0 mm/hr 0.00 in0.0 mm
09:00 AM 87.5°F30.8°C 59.5°F15.3°C 39% 0.9 mph S1.4 kmh S 3.0 mph4.8 kmh 30.03 in1016.9 mb 0.00 in0.0 mm 0.00 in/hr0.0 mm/hr 0.00 in0.0 mm
08:50 AM 87.2°F30.7°C 60.0°F15.6°C 40% 3.0 mph E4.8 kmh E 5.0 mph8.0 kmh 30.03 in1016.9 mb 0.00 in0.0 mm 0.00 in/hr0.0 mm/hr 0.00 in0.0 mm
08:40 AM 86.8°F30.4°C 60.2°F15.7°C 41% 3.6 mph ESE5.8 kmh ESE 5.0 mph8.0 kmh 30.02 in1016.6 mb 0.00 in0.0 mm 0.00 in/hr0.0 mm/hr 0.00 in0.0 mm
08:30 AM 86.0°F30.0°C 60.2°F15.7°C 42% 3.0 mph SE4.8 kmh SE 7.0 mph11.3 kmh 30.02 in1016.6 mb 0.00 in0.0 mm 0.00 in/hr0.0 mm/hr 0.00 in0.0 mm
08:20 AM 85.4°F29.7°C 60.4°F15.8°C 43% 0.4 mph SE0.6 kmh SE 1.0 mph1.6 kmh 30.02 in1016.6 mb 0.00 in0.0 mm 0.00 in/hr0.0 mm/hr 0.00 in0.0 mm
08:10 AM 85.0°F29.4°C 60.0°F15.6°C 43% 3.0 mph ESE4.8 kmh ESE 5.0 mph8.0 kmh 30.01 in1016.3 mb 0.00 in0.0 mm 0.00 in/hr0.0 mm/hr 0.00 in0.0 mm
08:00 AM 84.9°F29.4°C 59.9°F15.5°C 43% 2.6 mph E4.2 kmh E 5.0 mph8.0 kmh 30.01 in1016.3 mb 0.00 in0.0 mm 0.00 in/hr0.0 mm/hr 0.00 in0.0 mm
07:50 AM 85.1°F29.5°C 60.1°F15.6°C 43% 3.4 mph SSE5.5 kmh SSE 5.0 mph8.0 kmh 30.01 in1016.3 mb 0.00 in0.0 mm 0.00 in/hr0.0 mm/hr 0.00 in0.0 mm
07:40 AM 85.4°F29.7°C 59.7°F15.4°C 42% 1.4 mph E2.3 kmh E 3.0 mph4.8 kmh 30.01 in1016.3 mb 0.00 in0.0 mm 0.00 in/hr0.0 mm/hr 0.00 in0.0 mm
07:30 AM 85.4°F29.7°C 59.0°F15.0°C 41% 2.5 mph ESE4.0 kmh ESE 5.0 mph8.0 kmh 30.00 in1015.9 mb 0.00 in0.0 mm 0.00 in/hr0.0 mm/hr 0.00 in0.0 mm
07:20 AM 85.2°F29.6°C 58.8°F14.9°C 41% 1.1 mph SE1.8 kmh SE 1.0 mph1.6 kmh 30.00 in1015.9 mb 0.00 in0.0 mm 0.00 in/hr0.0 mm/hr 0.00 in0.0 mm
07:10 AM 84.9°F29.4°C 58.6°F14.8°C 41% 0.9 mph E1.4 kmh E 2.0 mph3.2 kmh 29.99 in1015.6 mb 0.00 in0.0 mm 0.00 in/hr0.0 mm/hr 0.00 in0.0 mm
07:00 AM 84.6°F29.2°C 59.0°F15.0°C 42% 1.0 mph ESE1.6 kmh ESE 5.0 mph8.0 kmh 29.99 in1015.6 mb 0.00 in0.0 mm 0.00 in/hr0.0 mm/hr 0.00 in0.0 mm
06:50 AM 84.3°F29.1°C 59.4°F15.2°C 43% 1.2 mph ESE1.9 kmh ESE 2.0 mph3.2 kmh 29.99 in1015.6 mb 0.00 in0.0 mm 0.00 in/hr0.0 mm/hr 0.00 in0.0 mm
06:40 AM 84.2°F29.0°C 59.3°F15.2°C 43% 0.2 mph ESE0.3 kmh ESE 2.0 mph3.2 kmh 29.98 in1015.2 mb 0.00 in0.0 mm 0.00 in/hr0.0 mm/hr 0.00 in0.0 mm
06:30 AM 84.2°F29.0°C 59.3°F15.2°C 43% Calm Calm -- 29.98 in1015.2 mb 0.00 in0.0 mm 0.00 in/hr0.0 mm/hr 0.00 in0.0 mm
06:20 AM 84.2°F29.0°C 59.2°F15.1°C 43% Calm Calm -- 29.98 in1015.2 mb 0.00 in0.0 mm 0.00 in/hr0.0 mm/hr 0.00 in0.0 mm
06:10 AM 84.2°F29.0°C 58.6°F14.8°C 42% 0.3 mph ESE0.5 kmh ESE 1.0 mph1.6 kmh 29.98 in1015.2 mb 0.00 in0.0 mm 0.00 in/hr0.0 mm/hr 0.00 in0.0 mm
06:00 AM 84.2°F29.0°C 58.6°F14.8°C 42% Calm Calm -- 29.98 in1015.2 mb 0.00 in0.0 mm 0.00 in/hr0.0 mm/hr 0.00 in0.0 mm
05:50 AM 84.3°F29.1°C 58.7°F14.8°C 42% 0.2 mph SSE0.3 kmh SSE -- 29.98 in1015.2 mb 0.00 in0.0 mm 0.00 in/hr0.0 mm/hr 0.00 in0.0 mm
05:40 AM 84.3°F29.1°C 58.7°F14.8°C 42% Calm Calm -- 29.98 in1015.2 mb 0.00 in0.0 mm 0.00 in/hr0.0 mm/hr 0.00 in0.0 mm
05:30 AM 84.4°F29.1°C 58.8°F14.9°C 42% Calm Calm -- 29.98 in1015.2 mb 0.00 in0.0 mm 0.00 in/hr0.0 mm/hr 0.00 in0.0 mm
05:20 AM 84.4°F29.1°C 58.8°F14.9°C 42% 0.6 mph ESE1.0 kmh ESE 2.0 mph3.2 kmh 29.98 in1015.2 mb 0.00 in0.0 mm 0.00 in/hr0.0 mm/hr 0.00 in0.0 mm
05:10 AM 84.4°F29.1°C 58.8°F14.9°C 42% 2.0 mph SE3.2 kmh SE 3.0 mph4.8 kmh 29.98 in1015.2 mb 0.00 in0.0 mm 0.00 in/hr0.0 mm/hr 0.00 in0.0 mm
05:00 AM 84.3°F29.1°C 58.7°F14.8°C 42% 2.2 mph SE3.5 kmh SE 4.0 mph6.4 kmh 29.97 in1014.9 mb 0.00 in0.0 mm 0.00 in/hr0.0 mm/hr 0.00 in0.0 mm
04:50 AM 84.3°F29.1°C 58.7°F14.8°C 42% 3.1 mph ESE5.0 kmh ESE 6.0 mph9.7 kmh 29.96 in1014.6 mb 0.00 in0.0 mm 0.00 in/hr0.0 mm/hr 0.00 in0.0 mm
04:40 AM 84.5°F29.2°C 58.9°F14.9°C 42% 1.9 mph SE3.1 kmh SE 5.0 mph8.0 kmh 29.96 in1014.6 mb 0.00 in0.0 mm 0.00 in/hr0.0 mm/hr 0.00 in0.0 mm
04:30 AM 84.5°F29.2°C 58.2°F14.6°C 41% 1.6 mph ESE2.6 kmh ESE 5.0 mph8.0 kmh 29.96 in1014.6 mb 0.00 in0.0 mm 0.00 in/hr0.0 mm/hr 0.00 in0.0 mm
04:20 AM 84.6°F29.2°C 59.0°F15.0°C 42% 1.8 mph E2.9 kmh E 4.0 mph6.4 kmh 29.96 in1014.6 mb 0.00 in0.0 mm 0.00 in/hr0.0 mm/hr 0.00 in0.0 mm
04:10 AM 84.7°F29.3°C 58.4°F14.7°C 41% 1.9 mph E3.1 kmh E 2.0 mph3.2 kmh 29.96 in1014.6 mb 0.00 in0.0 mm 0.00 in/hr0.0 mm/hr 0.00 in0.0 mm
04:00 AM 84.8°F29.3°C 58.5°F14.7°C 41% 1.5 mph SE2.4 kmh SE 4.0 mph6.4 kmh 29.96 in1014.6 mb 0.00 in0.0 mm 0.00 in/hr0.0 mm/hr 0.00 in0.0 mm
03:50 AM 84.9°F29.4°C 57.2°F14.0°C 39% 1.7 mph SSE2.7 kmh SSE 4.0 mph6.4 kmh 29.96 in1014.6 mb 0.00 in0.0 mm 0.00 in/hr0.0 mm/hr 0.00 in0.0 mm
03:40 AM 85.0°F29.4°C 57.3°F14.1°C 39% 0.7 mph SE1.1 kmh SE 3.0 mph4.8 kmh 29.96 in1014.6 mb 0.00 in0.0 mm 0.00 in/hr0.0 mm/hr 0.00 in0.0 mm
03:30 AM 85.1°F29.5°C 57.4°F14.1°C 39% 0.8 mph ESE1.3 kmh ESE 2.0 mph3.2 kmh 29.96 in1014.6 mb 0.00 in0.0 mm 0.00 in/hr0.0 mm/hr 0.00 in0.0 mm
03:20 AM 85.1°F29.5°C 57.4°F14.1°C 39% Calm Calm -- 29.96 in1014.6 mb 0.00 in0.0 mm 0.00 in/hr0.0 mm/hr 0.00 in0.0 mm
03:10 AM 85.2°F29.6°C 57.4°F14.1°C 39% Calm Calm -- 29.95 in1014.2 mb 0.00 in0.0 mm 0.00 in/hr0.0 mm/hr 0.00 in0.0 mm
03:00 AM 85.2°F29.6°C 56.7°F13.7°C 38% 0.2 mph ESE0.3 kmh ESE 1.0 mph1.6 kmh 29.95 in1014.2 mb 0.00 in0.0 mm 0.00 in/hr0.0 mm/hr 0.00 in0.0 mm
02:50 AM 85.2°F29.6°C 57.4°F14.1°C 39% 0.1 mph ESE0.2 kmh ESE 1.0 mph1.6 kmh 29.95 in1014.2 mb 0.00 in0.0 mm 0.00 in/hr0.0 mm/hr 0.00 in0.0 mm
02:40 AM 85.1°F29.5°C 57.4°F14.1°C 39% 0.8 mph SE1.3 kmh SE 2.0 mph3.2 kmh 29.95 in1014.2 mb 0.00 in0.0 mm 0.00 in/hr0.0 mm/hr 0.00 in0.0 mm
02:30 AM 85.0°F29.4°C 57.3°F14.1°C 39% 0.4 mph E0.6 kmh E 2.0 mph3.2 kmh 29.95 in1014.2 mb 0.00 in0.0 mm 0.00 in/hr0.0 mm/hr 0.00 in0.0 mm
02:20 AM 84.9°F29.4°C 57.2°F14.0°C 39% 1.2 mph E1.9 kmh E 3.0 mph4.8 kmh 29.95 in1014.2 mb 0.00 in0.0 mm 0.00 in/hr0.0 mm/hr 0.00 in0.0 mm
02:10 AM 84.7°F29.3°C 57.0°F13.9°C 39% 1.1 mph SE1.8 kmh SE 3.0 mph4.8 kmh 29.95 in1014.2 mb 0.00 in0.0 mm 0.00 in/hr0.0 mm/hr 0.00 in0.0 mm
02:00 AM 84.7°F29.3°C 57.7°F14.3°C 40% 0.1 mph SE0.2 kmh SE 2.0 mph3.2 kmh 29.95 in1014.2 mb 0.00 in0.0 mm 0.00 in/hr0.0 mm/hr 0.00 in0.0 mm
01:50 AM 84.6°F29.2°C 56.9°F13.8°C 39% 0.4 mph SE0.6 kmh SE 1.0 mph1.6 kmh 29.95 in1014.2 mb 0.00 in0.0 mm 0.00 in/hr0.0 mm/hr 0.00 in0.0 mm
01:40 AM 84.6°F29.2°C 56.9°F13.8°C 39% 0.5 mph SE0.8 kmh SE -- 29.95 in1014.2 mb 0.00 in0.0 mm 0.00 in/hr0.0 mm/hr 0.00 in0.0 mm
01:30 AM 84.5°F29.2°C 57.5°F14.2°C 40% 0.2 mph SE0.3 kmh SE 2.0 mph3.2 kmh 29.94 in1013.9 mb 0.00 in0.0 mm 0.00 in/hr0.0 mm/hr 0.00 in0.0 mm
01:20 AM 84.6°F29.2°C 57.6°F14.2°C 40% 0.3 mph SE0.5 kmh SE 1.0 mph1.6 kmh 29.93 in1013.5 mb 0.00 in0.0 mm 0.00 in/hr0.0 mm/hr 0.00 in0.0 mm
01:10 AM 84.7°F29.3°C 57.0°F13.9°C 39% Calm Calm -- 29.93 in1013.5 mb 0.00 in0.0 mm 0.00 in/hr0.0 mm/hr 0.00 in0.0 mm
01:00 AM 84.8°F29.3°C 57.1°F13.9°C 39% Calm Calm -- 29.93 in1013.5 mb 0.00 in0.0 mm 0.00 in/hr0.0 mm/hr 0.00 in0.0 mm
12:50 AM 85.1°F29.5°C 57.3°F14.1°C 39% 0.1 mph SE0.2 kmh SE 1.0 mph1.6 kmh 29.93 in1013.5 mb 0.00 in0.0 mm 0.00 in/hr0.0 mm/hr 0.00 in0.0 mm
12:40 AM 85.4°F29.7°C 57.6°F14.2°C 39% 0.1 mph SE0.2 kmh SE 1.0 mph1.6 kmh 29.93 in1013.5 mb 0.00 in0.0 mm 0.00 in/hr0.0 mm/hr 0.00 in0.0 mm
12:30 AM 85.7°F29.8°C 57.9°F14.4°C 39% 0.1 mph SE0.2 kmh SE 1.0 mph1.6 kmh 29.93 in1013.5 mb 0.00 in0.0 mm 0.00 in/hr0.0 mm/hr 0.00 in0.0 mm
12:20 AM 86.1°F30.1°C 57.5°F14.2°C 38% 0.1 mph SE0.2 kmh SE 1.0 mph1.6 kmh 29.93 in1013.5 mb 0.00 in0.0 mm 0.00 in/hr0.0 mm/hr 0.00 in0.0 mm
12:10 AM 86.4°F30.2°C 57.8°F14.3°C 38% 0.3 mph SE0.5 kmh SE 1.0 mph1.6 kmh 29.93 in1013.5 mb 0.00 in0.0 mm 0.00 in/hr0.0 mm/hr 0.00 in0.0 mm
12:00 AM 86.9°F30.5°C 57.5°F14.2°C 37% 0.7 mph SE1.1 kmh SE 2.0 mph3.2 kmh 29.94 in1013.9 mb 0.00 in0.0 mm 0.00 in/hr0.0 mm/hr 0.00 in0.0 mm